Federal Way, Washington
Current Conditions -  °F | °C
As of 3:53 AM on Monday 26 Jan 2015 (Local Time) from KSEA Reporting Station
Moderate Fog Moderate Fog  
Wind Chill:   Ceiling: 100
Heat Index:   Visibility: 0.12mi
Dew Point:   Wind: 5mph
Humidity: 93%   Direction: 240°WSW
Pressure: 29.94"   Gusts: NA
Location:  47.3°N, 122.32°W
Report Text: KSEA 261153Z 24004KT 1/8SM R16L/0800V1000FT FG VV001 08/07 A2994 RMK AO2 SLP145 T00830072 10089 20067 55005
Loading
Personal Weather Stations






























Interactive Weather Map New forecast layout! Learn more

10-Day Weather Forecast

Advertisements
Track Severe Weather on mobile